Time;durP1;ratioP1;P1;durP2;ratioP2;P2;SDS_P1;SDS_P2;PMS_P1;PMS_P2;Temp;Humidity;BMP_temperature;BMP_pressure;BME280_temperature;BME280_humidity;BME280_pressure;Samples;Min_cycle;Max_cycle;Signal;HPM_P1;HPM_P2
2021/07/14 00:02:12;;;;;;;49.50;40.80;;;19.20;99.90;;;;;;5020833;28;20551;-69
2021/07/14 00:04:39;;;;;;;53.30;42.10;;;19.20;99.90;;;;;;5020754;28;20496;-69
2021/07/14 00:07:07;;;;;;;50.60;40.70;;;19.20;99.90;;;;;;5020662;28;20468;-71
2021/07/14 00:09:36;;;;;;;52.30;39.63;;;19.20;99.90;;;;;;5017154;28;20500;-69
2021/07/14 00:12:07;;;;;;;56.53;42.60;;;19.20;99.90;;;;;;5024436;28;20524;-72
2021/07/14 00:15:01;;;;;;;49.50;41.10;;;19.20;99.90;;;;;;5020488;28;20479;-70
2021/07/14 00:17:46;;;;;;;62.20;42.07;;;19.20;99.90;;;;;;5020178;28;20559;-70
2021/07/14 00:22:58;;;;;;;14.30;13.70;;;19.20;99.90;;;;;;5020920;28;20499;-70
2021/07/14 00:25:27;;;;;;;14.10;13.50;;;19.20;99.90;;;;;;5020323;28;20507;-71
2021/07/14 00:27:54;;;;;;;14.87;14.20;;;19.10;99.90;;;;;;5024551;28;20465;-70
2021/07/14 00:30:30;;;;;;;14.87;14.27;;;19.10;99.90;;;;;;5022089;28;20456;-70
2021/07/14 00:32:57;;;;;;;65.13;49.93;;;19.20;99.90;;;;;;5020847;28;20495;-71
2021/07/14 00:35:24;;;;;;;82.27;48.13;;;19.20;99.90;;;;;;5019543;28;20487;-72
2021/07/14 00:37:51;;;;;;;76.00;50.70;;;19.10;99.90;;;;;;5022842;28;20551;-71
2021/07/14 00:40:18;;;;;;;74.90;50.17;;;19.10;99.90;;;;;;5019731;28;20489;-70
2021/07/14 00:42:47;;;;;;;65.00;49.90;;;19.10;99.90;;;;;;5021586;28;20462;-72
2021/07/14 00:45:15;;;;;;;61.83;46.20;;;19.10;99.90;;;;;;5023309;28;20574;-70
2021/07/14 00:47:47;;;;;;;64.23;44.80;;;19.00;99.90;;;;;;5021523;28;20484;-72
2021/07/14 00:50:14;;;;;;;57.37;42.50;;;19.10;99.90;;;;;;5023437;28;20551;-69
2021/07/14 00:52:41;;;;;;;54.17;41.23;;;19.10;99.90;;;;;;5025219;28;20469;-70
2021/07/14 00:55:09;;;;;;;56.03;41.47;;;19.10;99.90;;;;;;5017035;28;20952;-71
2021/07/14 00:57:36;;;;;;;63.60;41.80;;;19.10;99.90;;;;;;5017005;28;20987;-69
2021/07/14 01:00:05;;;;;;;58.47;40.63;;;19.10;99.90;;;;;;5025079;28;20461;-72
2021/07/14 01:02:32;;;;;;;50.90;41.20;;;19.10;99.90;;;;;;5026405;28;20981;-68
2021/07/14 01:05:06;;;;;;;59.83;41.00;;;19.10;99.90;;;;;;5023034;28;20464;-70
2021/07/14 01:07:39;;;;;;;62.90;41.67;;;19.10;99.90;;;;;;5018468;28;20470;-69
2021/07/14 01:10:10;;;;;;;58.77;43.17;;;19.00;99.90;;;;;;5021913;28;20496;-69
2021/07/14 01:12:43;;;;;;;56.90;40.93;;;19.00;99.90;;;;;;5019908;28;20465;-71
2021/07/14 01:15:13;;;;;;;61.03;44.20;;;19.00;99.90;;;;;;5020150;28;20468;-68
2021/07/14 01:17:47;;;;;;;65.53;45.50;;;19.00;99.90;;;;;;5022569;28;20998;-69
2021/07/14 01:20:33;;;;;;;59.67;41.30;;;18.90;99.90;;;;;;5019934;28;20468;-72
2021/07/14 01:23:08;;;;;;;67.93;43.87;;;18.90;99.90;;;;;;5023547;28;20464;-70
2021/07/14 01:25:50;;;;;;;59.63;42.63;;;18.90;99.90;;;;;;5020370;28;20471;-69
2021/07/14 01:28:20;;;;;;;68.73;44.97;;;18.90;99.90;;;;;;5018327;28;20467;-69
2021/07/14 01:30:49;;;;;;;61.60;43.23;;;18.90;99.90;;;;;;5022880;28;20465;-71
2021/07/14 01:33:19;;;;;;;51.97;39.57;;;19.00;99.90;;;;;;5021139;28;20504;-68
2021/07/14 01:35:49;;;;;;;59.83;39.00;;;18.90;99.90;;;;;;5021014;28;20493;-68
2021/07/14 01:38:20;;;;;;;56.57;40.80;;;18.90;99.90;;;;;;5017192;28;20932;-69
2021/07/14 01:40:48;;;;;;;12.47;11.97;;;18.90;99.90;;;;;;5020044;28;21061;-69
2021/07/14 01:43:15;;;;;;;12.37;11.87;;;18.90;99.90;;;;;;5024164;28;20468;-69
2021/07/14 01:45:46;;;;;;;12.60;12.10;;;18.90;99.90;;;;;;5027321;28;20457;-72
2021/07/14 01:48:15;;;;;;;12.50;12.00;;;19.00;99.90;;;;;;5020180;28;21172;-68
2021/07/14 01:50:45;;;;;;;12.80;12.30;;;19.00;99.90;;;;;;5027506;28;20466;-71
2021/07/14 01:53:12;;;;;;;12.90;12.40;;;19.10;99.90;;;;;;5025760;28;20551;-69
2021/07/14 01:55:40;;;;;;;12.47;11.97;;;19.00;99.90;;;;;;5018009;28;20469;-69
2021/07/14 01:58:09;;;;;;;12.70;12.20;;;19.00;99.90;;;;;;5017491;28;20523;-68
2021/07/14 02:00:37;;;;;;;12.53;12.03;;;19.00;99.90;;;;;;5022261;28;20488;-71
2021/07/14 02:03:18;;;;;;;12.20;11.70;;;18.90;99.90;;;;;;5026817;28;20463;-69
2021/07/14 02:05:46;;;;;;;13.60;12.90;;;18.90;99.90;;;;;;5021883;28;20523;-69
2021/07/14 02:08:15;;;;;;;12.50;12.00;;;19.00;99.90;;;;;;5021101;28;20496;-69
2021/07/14 02:10:43;;;;;;;12.70;12.20;;;19.00;99.90;;;;;;5024002;28;20464;-70
2021/07/14 02:13:11;;;;;;;12.47;11.97;;;19.00;99.90;;;;;;5020613;28;20475;-70
2021/07/14 02:15:42;;;;;;;13.00;12.50;;;19.00;99.90;;;;;;5026953;28;20479;-71
2021/07/14 02:18:13;;;;;;;12.83;12.33;;;19.00;99.90;;;;;;5021897;28;20510;-70
2021/07/14 02:20:40;;;;;;;13.17;12.57;;;19.00;99.90;;;;;;5022505;28;20467;-69
2021/07/14 02:23:08;;;;;;;12.97;12.47;;;19.00;99.90;;;;;;5022378;28;20535;-70
2021/07/14 02:25:35;;;;;;;13.47;12.87;;;19.10;99.90;;;;;;5024439;28;20679;-70
2021/07/14 02:28:03;;;;;;;14.03;13.43;;;19.00;99.90;;;;;;5021451;28;20469;-69
2021/07/14 02:30:31;;;;;;;13.20;12.60;;;19.10;99.90;;;;;;5024161;28;20481;-68
2021/07/14 02:33:01;;;;;;;12.77;12.27;;;19.00;99.90;;;;;;5022149;28;20503;-68
2021/07/14 02:35:31;;;;;;;13.00;12.50;;;19.00;99.90;;;;;;5015983;28;20489;-72
2021/07/14 02:38:02;;;;;;;13.00;12.50;;;19.00;99.90;;;;;;5022371;28;20465;-67
2021/07/14 02:40:31;;;;;;;14.03;13.43;;;19.00;99.90;;;;;;5027306;28;20484;-71
2021/07/14 02:43:01;;;;;;;12.83;12.33;;;19.00;99.90;;;;;;5022094;28;20453;-71
2021/07/14 02:45:30;;;;;;;13.63;13.03;;;19.00;99.90;;;;;;5021704;28;20468;-71
2021/07/14 02:48:00;;;;;;;14.50;13.37;;;19.00;99.90;;;;;;5023460;28;20469;-68
2021/07/14 02:50:31;;;;;;;14.07;13.47;;;19.00;99.90;;;;;;5022742;28;20583;-69
2021/07/14 02:53:06;;;;;;;13.97;13.37;;;19.00;99.90;;;;;;5017421;28;20464;-71
2021/07/14 02:55:34;;;;;;;14.23;13.63;;;19.00;99.90;;;;;;5017248;28;20456;-71
2021/07/14 02:58:02;;;;;;;14.90;14.30;;;19.00;99.90;;;;;;5025758;28;20472;-68
2021/07/14 03:00:31;;;;;;;13.63;13.03;;;19.00;99.90;;;;;;5021051;28;20468;-68
2021/07/14 03:02:59;;;;;;;13.33;12.83;;;18.90;99.90;;;;;;5024480;28;20460;-68
2021/07/14 03:05:29;;;;;;;13.30;12.70;;;18.90;99.90;;;;;;5018324;28;20479;-71
2021/07/14 03:07:58;;;;;;;13.87;13.27;;;18.90;99.90;;;;;;5023211;28;21017;-69
2021/07/14 03:10:26;;;;;;;13.53;12.93;;;18.90;99.90;;;;;;5019080;28;20546;-69
2021/07/14 03:12:57;;;;;;;13.70;13.10;;;19.00;99.90;;;;;;5019901;28;20462;-71
2021/07/14 03:15:25;;;;;;;14.17;13.57;;;19.00;99.90;;;;;;5023342;28;20466;-68
2021/07/14 03:17:53;;;;;;;13.63;13.03;;;19.00;99.90;;;;;;5022451;28;20559;-68
2021/07/14 03:20:22;;;;;;;13.40;12.80;;;19.00;99.90;;;;;;5022736;28;20516;-68
2021/07/14 03:22:51;;;;;;;13.40;12.80;;;19.00;99.90;;;;;;5024819;28;20464;-69
2021/07/14 03:25:21;;;;;;;14.10;13.50;;;19.00;99.90;;;;;;5023061;28;20519;-70
2021/07/14 03:27:49;;;;;;;13.83;13.23;;;19.00;99.90;;;;;;5022616;28;20511;-70
2021/07/14 03:30:19;;;;;;;14.00;13.40;;;18.90;99.90;;;;;;5019899;28;20539;-69
2021/07/14 03:32:46;;;;;;;14.10;13.50;;;19.00;99.90;;;;;;5021808;28;20974;-69
2021/07/14 03:35:14;;;;;;;14.07;13.47;;;19.00;99.90;;;;;;5023169;28;20483;-70
2021/07/14 03:37:44;;;;;;;14.40;13.80;;;18.90;99.90;;;;;;5024000;28;20476;-69
2021/07/14 03:40:13;;;;;;;14.50;13.90;;;19.00;99.90;;;;;;4983100;28;1060228;-69
2021/07/14 03:42:43;;;;;;;15.00;14.30;;;18.90;99.90;;;;;;5018592;28;20205;-69
2021/07/14 03:45:11;;;;;;;13.70;13.10;;;18.90;99.90;;;;;;5020949;28;20472;-69
2021/07/14 03:47:42;;;;;;;13.93;13.33;;;18.80;99.90;;;;;;5023419;28;20464;-69
2021/07/14 03:50:10;;;;;;;14.93;14.23;;;18.90;99.90;;;;;;5023018;28;20857;-71
2021/07/14 03:52:38;;;;;;;13.20;12.63;;;18.90;99.90;;;;;;5021261;28;20843;-69
2021/07/14 03:55:08;;;;;;;14.17;13.57;;;18.80;99.90;;;;;;5022560;28;20490;-69
2021/07/14 03:57:35;;;;;;;13.43;12.83;;;18.90;99.90;;;;;;5019278;28;20980;-68
2021/07/14 04:00:06;;;;;;;12.90;12.40;;;18.80;99.90;;;;;;5020395;28;20461;-69
2021/07/14 04:02:34;;;;;;;13.00;12.50;;;18.80;99.90;;;;;;5018844;28;20471;-70
2021/07/14 04:05:01;;;;;;;52.40;45.13;;;18.90;99.90;;;;;;5019624;28;20463;-71
2021/07/14 04:07:28;;;;;;;59.60;44.40;;;18.90;99.90;;;;;;5024829;28;20481;-69
2021/07/14 04:09:57;;;;;;;54.23;45.67;;;18.90;99.90;;;;;;5020015;28;20825;-69
2021/07/14 04:12:24;;;;;;;59.47;45.20;;;18.80;99.90;;;;;;5017353;28;20494;-70
2021/07/14 04:14:53;;;;;;;55.50;43.30;;;18.80;99.90;;;;;;5019634;28;21047;-69
2021/07/14 04:17:22;;;;;;;58.20;44.33;;;18.80;99.90;;;;;;5020473;28;20460;-69
2021/07/14 04:19:49;;;;;;;64.97;49.07;;;18.80;99.90;;;;;;5020193;28;20471;-70
2021/07/14 04:22:17;;;;;;;70.67;47.50;;;18.80;99.90;;;;;;5020843;28;20468;-71
2021/07/14 04:24:43;;;;;;;65.10;45.90;;;18.90;99.90;;;;;;5016117;28;20480;-69
2021/07/14 04:27:11;;;;;;;55.50;44.77;;;18.80;99.90;;;;;;5014818;28;20465;-69
2021/07/14 04:29:38;;;;;;;72.90;44.57;;;18.80;99.90;;;;;;5018373;28;20502;-71
2021/07/14 04:32:07;;;;;;;67.03;44.60;;;18.80;99.90;;;;;;5022793;28;20473;-69
2021/07/14 04:34:36;;;;;;;14.67;13.80;;;18.80;99.90;;;;;;5025671;28;20465;-71
2021/07/14 04:37:03;;;;;;;13.63;13.03;;;18.80;99.90;;;;;;5021479;28;20950;-70
2021/07/14 04:39:29;;;;;;;13.23;12.63;;;18.80;99.90;;;;;;5016591;28;20950;-71
2021/07/14 04:41:56;;;;;;;12.50;12.00;;;18.70;99.90;;;;;;5016500;28;20458;-71
2021/07/14 04:44:32;;;;;;;13.60;13.00;;;18.70;99.90;;;;;;5022086;28;20484;-70
2021/07/14 04:47:00;;;;;;;13.20;12.67;;;18.70;99.90;;;;;;5015020;28;20535;-70
2021/07/14 04:49:27;;;;;;;94.40;45.03;;;18.70;99.90;;;;;;5020689;28;20515;-71
2021/07/14 04:51:56;;;;;;;64.23;41.47;;;18.80;99.90;;;;;;5015079;28;20468;-71
2021/07/14 04:54:24;;;;;;;15.00;13.90;;;18.70;99.90;;;;;;5015676;28;20565;-70
2021/07/14 04:56:53;;;;;;;12.33;11.83;;;18.70;99.90;;;;;;5018267;28;20465;-70
2021/07/14 04:59:20;;;;;;;70.70;47.47;;;18.70;99.90;;;;;;5023368;28;20465;-70
2021/07/14 05:01:47;;;;;;;55.50;40.93;;;18.70;99.90;;;;;;5025602;28;21172;-69
2021/07/14 05:04:16;;;;;;;61.07;39.63;;;18.70;99.90;;;;;;5020622;28;20559;-69
2021/07/14 05:06:47;;;;;;;47.77;34.00;;;18.70;99.90;;;;;;5017258;28;20480;-69
2021/07/14 05:09:17;;;;;;;47.00;32.40;;;18.70;99.90;;;;;;5016668;28;20465;-68
2021/07/14 05:11:44;;;;;;;12.60;12.10;;;18.70;99.90;;;;;;5019159;28;20528;-70
2021/07/14 05:14:11;;;;;;;12.60;12.10;;;18.60;99.90;;;;;;5020671;28;20469;-71
2021/07/14 05:16:38;;;;;;;12.10;11.60;;;18.70;99.90;;;;;;5019388;28;20516;-70
2021/07/14 05:19:06;;;;;;;12.27;11.77;;;18.70;99.90;;;;;;5016861;28;20796;-70
2021/07/14 05:21:33;;;;;;;12.60;12.10;;;18.70;99.90;;;;;;5016050;28;20465;-70
2021/07/14 05:24:01;;;;;;;12.30;11.80;;;18.70;99.90;;;;;;5020605;28;20477;-71
2021/07/14 05:26:29;;;;;;;12.20;11.70;;;18.70;99.90;;;;;;5021969;28;20476;-69
2021/07/14 05:28:56;;;;;;;14.77;14.00;;;18.70;99.90;;;;;;5016708;28;21110;-70
2021/07/14 05:31:23;;;;;;;12.43;11.93;;;18.70;99.90;;;;;;5021193;28;20852;-69
2021/07/14 05:33:50;;;;;;;55.10;39.40;;;18.70;99.90;;;;;;5018683;28;20470;-69
2021/07/14 05:36:18;;;;;;;47.70;35.33;;;18.70;99.90;;;;;;5022569;28;20491;-70
2021/07/14 05:38:46;;;;;;;49.20;37.77;;;18.70;99.90;;;;;;5018286;28;20464;-70
2021/07/14 05:41:13;;;;;;;43.67;34.70;;;18.70;99.90;;;;;;5023350;28;20468;-70
2021/07/14 05:43:41;;;;;;;57.53;36.73;;;18.70;99.90;;;;;;5017220;28;20493;-69
2021/07/14 05:46:08;;;;;;;54.77;37.60;;;18.60;99.90;;;;;;5025760;28;20468;-69
2021/07/14 05:48:35;;;;;;;49.27;35.70;;;18.70;99.90;;;;;;5022040;28;20460;-70
2021/07/14 05:51:02;;;;;;;42.27;30.43;;;18.70;99.90;;;;;;5022605;28;20864;-71
2021/07/14 05:53:29;;;;;;;12.93;12.33;;;18.60;99.90;;;;;;5026417;28;20466;-70
2021/07/14 05:55:56;;;;;;;11.83;11.33;;;18.60;99.90;;;;;;5021238;28;20809;-69
2021/07/14 05:58:23;;;;;;;50.13;35.30;;;18.60;99.90;;;;;;5022139;28;20967;-71
2021/07/14 06:00:52;;;;;;;50.50;35.13;;;18.60;99.90;;;;;;5019891;28;20922;-71
2021/07/14 06:03:19;;;;;;;45.07;28.70;;;18.60;99.90;;;;;;5018281;28;21007;-70
2021/07/14 06:05:46;;;;;;;11.70;11.20;;;18.60;99.90;;;;;;5017467;28;20480;-70
2021/07/14 06:08:13;;;;;;;39.30;32.60;;;18.60;99.90;;;;;;5024624;28;20460;-71
2021/07/14 06:10:40;;;;;;;35.87;26.00;;;18.60;99.90;;;;;;5025385;28;20487;-70
2021/07/14 06:13:07;;;;;;;11.70;11.20;;;18.70;99.90;;;;;;5024074;28;20518;-71
2021/07/14 06:15:36;;;;;;;11.53;11.03;;;18.60;99.90;;;;;;5021210;28;20465;-70
2021/07/14 06:18:04;;;;;;;42.47;29.30;;;18.60;99.90;;;;;;5021593;28;20463;-71
2021/07/14 06:20:31;;;;;;;43.47;27.67;;;18.60;99.90;;;;;;5020649;28;20816;-69
2021/07/14 06:22:58;;;;;;;12.00;11.50;;;18.60;99.90;;;;;;5026828;28;20464;-71
2021/07/14 06:25:25;;;;;;;11.90;11.40;;;18.60;99.90;;;;;;5021843;28;20984;-70
2021/07/14 06:27:53;;;;;;;30.33;27.43;;;18.70;99.90;;;;;;5027524;28;20456;-71
2021/07/14 06:30:20;;;;;;;34.17;27.77;;;18.60;99.90;;;;;;5026944;28;20526;-71
2021/07/14 06:32:51;;;;;;;28.47;25.57;;;18.70;99.90;;;;;;5026364;28;20549;-70
2021/07/14 06:35:22;;;;;;;29.33;26.23;;;18.60;99.90;;;;;;5024994;28;20505;-70
2021/07/14 06:37:50;;;;;;;31.60;26.97;;;18.70;99.90;;;;;;5026507;28;20861;-71
2021/07/14 06:40:18;;;;;;;31.30;28.10;;;18.70;99.90;;;;;;5022405;28;20786;-71
2021/07/14 06:42:45;;;;;;;34.67;26.77;;;18.70;99.90;;;;;;5019683;28;20552;-70
2021/07/14 06:45:14;;;;;;;33.63;23.80;;;18.70;99.90;;;;;;5025463;28;20871;-70
2021/07/14 06:47:42;;;;;;;36.93;28.27;;;18.80;99.90;;;;;;5023557;28;22400;-70
2021/07/14 06:50:10;;;;;;;31.00;27.80;;;18.80;99.90;;;;;;5027863;28;20485;-71
2021/07/14 06:52:39;;;;;;;37.07;29.00;;;18.70;99.90;;;;;;5025200;28;20960;-70
2021/07/14 06:55:07;;;;;;;32.77;29.20;;;18.80;99.90;;;;;;5026505;28;20981;-71
2021/07/14 06:57:34;;;;;;;32.87;29.47;;;18.80;99.90;;;;;;5021007;28;20484;-70
2021/07/14 07:00:01;;;;;;;34.27;27.50;;;18.70;99.90;;;;;;5025963;28;20465;-70
2021/07/14 07:02:28;;;;;;;31.30;28.00;;;18.80;99.90;;;;;;5020884;28;20486;-69
2021/07/14 07:04:55;;;;;;;37.60;31.00;;;18.80;99.90;;;;;;5029783;28;20452;-69
2021/07/14 07:07:22;;;;;;;30.43;27.47;;;18.80;99.90;;;;;;5019621;28;20495;-69
2021/07/14 07:09:52;;;;;;;33.43;29.10;;;18.80;99.90;;;;;;5024604;28;20534;-71
2021/07/14 07:12:21;;;;;;;33.27;28.77;;;18.80;99.90;;;;;;5023949;28;20468;-70
2021/07/14 07:14:47;;;;;;;33.83;30.23;;;18.80;99.90;;;;;;5016539;28;20506;-69
2021/07/14 07:17:15;;;;;;;32.30;29.00;;;18.90;99.90;;;;;;5027293;28;20460;-70
2021/07/14 07:19:42;;;;;;;36.10;30.73;;;18.80;99.90;;;;;;5026866;28;20459;-70
2021/07/14 07:22:09;;;;;;;32.20;28.90;;;18.90;99.90;;;;;;5022154;28;20480;-69
2021/07/14 07:24:36;;;;;;;39.00;29.87;;;18.80;99.90;;;;;;5023642;28;20468;-69
2021/07/14 07:27:08;;;;;;;32.57;29.50;;;18.80;99.90;;;;;;5024215;28;20552;-70
2021/07/14 07:29:36;;;;;;;36.27;30.30;;;18.80;99.90;;;;;;5020810;28;20915;-70
2021/07/14 07:32:03;;;;;;;31.00;27.70;;;18.80;99.90;;;;;;5024810;28;21009;-71
2021/07/14 07:34:30;;;;;;;32.30;28.53;;;18.80;99.90;;;;;;5020891;28;20461;-70
2021/07/14 07:37:00;;;;;;;39.43;28.70;;;18.80;99.90;;;;;;5021766;28;21083;-70
2021/07/14 07:39:28;;;;;;;32.03;28.00;;;18.80;99.90;;;;;;5019548;28;20520;-70
2021/07/14 07:41:59;;;;;;;32.63;27.40;;;18.80;99.90;;;;;;5015167;28;20471;-70
2021/07/14 07:44:27;;;;;;;29.53;26.30;;;18.80;99.90;;;;;;5019401;28;20839;-71
2021/07/14 07:46:54;;;;;;;35.10;26.70;;;18.70;99.90;;;;;;5024434;28;20465;-71
2021/07/14 07:49:21;;;;;;;29.80;26.77;;;18.80;99.90;;;;;;5023461;28;20956;-70
2021/07/14 07:51:49;;;;;;;27.40;24.40;;;18.80;99.90;;;;;;5022903;28;20833;-70
2021/07/14 07:54:16;;;;;;;27.13;24.47;;;18.70;99.90;;;;;;5022079;28;20476;-69
2021/07/14 07:56:43;;;;;;;26.37;23.83;;;18.70;99.90;;;;;;5020454;28;20466;-71
2021/07/14 07:59:10;;;;;;;28.53;25.50;;;18.60;99.90;;;;;;5023096;28;20470;-70
2021/07/14 08:01:39;;;;;;;27.80;24.80;;;18.60;99.90;;;;;;5023027;28;20469;-70
2021/07/14 08:04:06;;;;;;;26.93;23.70;;;18.60;99.90;;;;;;5023807;28;20468;-69
2021/07/14 08:06:34;;;;;;;26.20;23.60;;;18.60;99.90;;;;;;5022478;28;20825;-70
2021/07/14 08:09:01;;;;;;;28.83;25.47;;;18.70;99.90;;;;;;5021708;28;21101;-71
2021/07/14 08:11:28;;;;;;;52.67;25.40;;;18.70;99.90;;;;;;5021085;28;20487;-70
2021/07/14 08:13:59;;;;;;;27.33;24.53;;;18.80;99.90;;;;;;5023443;28;20460;-70
2021/07/14 08:16:26;;;;;;;29.47;24.53;;;18.70;99.90;;;;;;5023782;28;20596;-71
2021/07/14 08:18:55;;;;;;;25.23;22.93;;;18.70;99.90;;;;;;5014043;28;20492;-70
2021/07/14 08:21:23;;;;;;;24.63;22.37;;;18.70;99.90;;;;;;5022840;28;20465;-70
2021/07/14 08:23:51;;;;;;;22.17;20.10;;;18.60;99.90;;;;;;5026047;28;20468;-70
2021/07/14 08:26:19;;;;;;;22.30;19.97;;;18.60;99.90;;;;;;5021222;28;20972;-70
2021/07/14 08:28:45;;;;;;;20.60;18.73;;;18.60;99.90;;;;;;5020273;28;21029;-72
2021/07/14 08:31:12;;;;;;;11.97;11.47;;;18.60;99.90;;;;;;5024495;28;20492;-71
2021/07/14 08:33:40;;;;;;;11.77;11.27;;;18.70;99.90;;;;;;5019681;28;20979;-71
2021/07/14 08:36:10;;;;;;;12.13;11.63;;;18.80;99.90;;;;;;5023307;28;20489;-70
2021/07/14 08:38:37;;;;;;;11.27;10.83;;;18.80;99.90;;;;;;5026396;28;20485;-69
2021/07/14 08:41:07;;;;;;;11.67;11.17;;;18.70;99.90;;;;;;5016232;28;20489;-70
2021/07/14 08:43:37;;;;;;;11.93;11.43;;;18.70;99.90;;;;;;5023646;28;20536;-71
2021/07/14 08:46:05;;;;;;;22.77;20.77;;;18.80;99.90;;;;;;5026049;28;20464;-72
2021/07/14 08:48:33;;;;;;;23.50;21.57;;;18.70;99.90;;;;;;5019911;28;20468;-70
2021/07/14 08:51:00;;;;;;;23.40;21.50;;;18.70;99.90;;;;;;5023005;28;20494;-70
2021/07/14 08:53:30;;;;;;;24.60;22.30;;;18.70;99.90;;;;;;5021702;28;20467;-69
2021/07/14 08:55:59;;;;;;;26.27;23.00;;;18.70;99.90;;;;;;5016678;28;20471;-70
2021/07/14 08:58:29;;;;;;;24.63;22.30;;;18.80;99.90;;;;;;5021798;28;20456;-71
2021/07/14 09:00:58;;;;;;;23.83;21.53;;;18.70;99.90;;;;;;5023573;28;20470;-72
2021/07/14 09:03:26;;;;;;;24.93;22.80;;;18.80;99.90;;;;;;5024096;28;20476;-71
2021/07/14 09:05:53;;;;;;;25.27;22.97;;;18.80;99.90;;;;;;5020988;28;21101;-70
2021/07/14 09:08:20;;;;;;;24.77;22.47;;;18.80;99.90;;;;;;5021917;28;20534;-71
2021/07/14 09:10:50;;;;;;;25.53;23.00;;;18.80;99.90;;;;;;5016738;28;20462;-69
2021/07/14 09:13:17;;;;;;;26.57;24.23;;;18.80;99.90;;;;;;5020862;28;20595;-70
2021/07/14 09:15:47;;;;;;;25.47;22.97;;;18.80;99.90;;;;;;5019489;28;20465;-68
2021/07/14 09:18:15;;;;;;;21.97;20.27;;;18.80;99.90;;;;;;5020373;28;20967;-69
2021/07/14 09:20:43;;;;;;;13.80;13.20;;;18.70;99.90;;;;;;5021511;28;20493;-69
2021/07/14 09:23:12;;;;;;;13.10;12.50;;;18.70;99.90;;;;;;5024152;28;20469;-68
2021/07/14 09:25:43;;;;;;;13.37;12.77;;;18.70;99.90;;;;;;5024852;28;20765;-69
2021/07/14 09:28:12;;;;;;;30.43;25.00;;;18.80;99.90;;;;;;5018984;28;20460;-70
2021/07/14 09:30:40;;;;;;;13.07;12.47;;;18.80;99.90;;;;;;5021303;28;20444;-70
2021/07/14 09:33:09;;;;;;;12.60;12.10;;;18.80;99.90;;;;;;5022039;28;20550;-70
2021/07/14 09:35:38;;;;;;;12.83;12.33;;;18.80;99.90;;;;;;5023005;28;20493;-69
2021/07/14 09:38:09;;;;;;;30.37;27.13;;;18.80;99.90;;;;;;5011152;28;20484;-68
2021/07/14 09:40:37;;;;;;;29.33;26.23;;;18.70;99.90;;;;;;5019789;28;20488;-71
2021/07/14 09:43:08;;;;;;;29.57;26.90;;;18.80;99.90;;;;;;5018955;28;20989;-70
2021/07/14 09:45:58;;;;;;;19.03;17.50;;;18.70;99.90;;;;;;5023407;28;20544;-69
2021/07/14 09:48:26;;;;;;;13.13;12.53;;;18.60;99.90;;;;;;5012977;28;20465;-70
2021/07/14 09:50:57;;;;;;;48.37;21.80;;;18.60;99.90;;;;;;5021097;28;20838;-70
2021/07/14 09:53:28;;;;;;;12.00;11.50;;;18.50;99.90;;;;;;5016899;28;20500;-71
2021/07/14 09:55:57;;;;;;;12.50;12.00;;;18.40;99.90;;;;;;5019448;28;20460;-71
2021/07/14 09:58:26;;;;;;;108.60;32.20;;;18.40;99.90;;;;;;5022298;28;20543;-71
2021/07/14 10:00:57;;;;;;;10.23;9.83;;;18.40;99.90;;;;;;5026917;28;20467;-71
2021/07/14 10:06:05;;;;;;;24.27;21.53;;;18.40;99.90;;;;;;5027526;28;20445;-71
2021/07/14 10:08:34;;;;;;;26.90;24.10;;;18.40;99.90;;;;;;5027529;28;20463;-71
2021/07/14 10:11:21;;;;;;;91.17;22.50;;;18.30;99.90;;;;;;5024208;28;20502;-74
2021/07/14 10:13:56;;;;;;;10.60;10.20;;;18.30;99.90;;;;;;5019894;28;20478;-72
2021/07/14 10:16:27;;;;;;;11.03;10.63;;;18.30;99.90;;;;;;5025991;28;20466;-72
2021/07/14 10:18:59;;;;;;;10.70;10.30;;;18.30;99.90;;;;;;5024844;28;20506;-71
2021/07/14 10:21:27;;;;;;;25.20;20.07;;;18.20;99.90;;;;;;5028140;28;20465;-71
2021/07/14 10:23:55;;;;;;;24.57;22.00;;;18.20;99.90;;;;;;5022203;28;20465;-70
2021/07/14 10:26:22;;;;;;;31.20;21.80;;;18.30;99.90;;;;;;5022493;28;20461;-72
2021/07/14 10:28:50;;;;;;;11.40;10.90;;;18.30;99.90;;;;;;5020267;28;20456;-73
2021/07/14 10:31:21;;;;;;;15.17;14.03;;;18.20;99.90;;;;;;5028039;28;20484;-74
2021/07/14 10:33:50;;;;;;;10.60;10.20;;;18.20;99.90;;;;;;5025358;28;21033;-72
2021/07/14 10:36:21;;;;;;;10.00;9.60;;;18.20;99.90;;;;;;5021985;28;20481;-74
2021/07/14 10:38:51;;;;;;;10.20;9.80;;;18.20;99.90;;;;;;5024797;28;21021;-72
2021/07/14 10:41:19;;;;;;;26.77;16.10;;;18.20;99.90;;;;;;5025417;28;20556;-72
2021/07/14 10:43:51;;;;;;;9.97;9.57;;;18.20;99.90;;;;;;5021423;28;20495;-73
2021/07/14 10:46:23;;;;;;;11.03;10.63;;;18.20;99.90;;;;;;5027768;28;20471;-73
2021/07/14 10:48:53;;;;;;;11.13;10.73;;;18.10;99.90;;;;;;5021275;28;20472;-72
2021/07/14 10:51:21;;;;;;;10.43;10.03;;;18.10;99.90;;;;;;5026722;28;20471;-72
2021/07/14 10:53:53;;;;;;;26.50;21.80;;;18.10;99.90;;;;;;5022010;28;20473;-72
2021/07/14 10:56:24;;;;;;;29.20;19.07;;;18.10;99.90;;;;;;5025864;28;22906;-71
2021/07/14 10:58:54;;;;;;;11.17;10.77;;;18.10;99.90;;;;;;5025727;28;20468;-72
2021/07/14 11:01:44;;;;;;;10.33;9.93;;;18.00;99.90;;;;;;5025815;28;20911;-71
2021/07/14 11:04:56;;;;;;;10.17;9.77;;;18.00;99.90;;;;;;5021022;28;20561;-70
2021/07/14 11:07:36;;;;;;;10.10;9.70;;;18.10;99.90;;;;;;5022354;28;20472;-71
2021/07/14 11:10:30;;;;;;;10.13;9.73;;;18.10;99.90;;;;;;5025071;28;20469;-70
2021/07/14 11:12:59;;;;;;;10.53;10.13;;;18.10;99.90;;;;;;5017684;28;20490;-71
2021/07/14 11:15:36;;;;;;;9.83;9.43;;;18.10;99.90;;;;;;5020762;28;20516;-71
2021/07/14 11:18:34;;;;;;;9.77;9.37;;;18.20;99.90;;;;;;5024494;28;20928;-72
2021/07/14 11:21:02;;;;;;;10.40;10.00;;;18.20;99.90;;;;;;5020015;28;20465;-71
2021/07/14 11:23:31;;;;;;;10.47;10.07;;;18.20;99.90;;;;;;5024418;28;20457;-73
2021/07/14 11:25:58;;;;;;;10.33;9.93;;;18.20;99.90;;;;;;5026011;28;20465;-71
2021/07/14 11:28:27;;;;;;;9.47;9.07;;;18.20;99.90;;;;;;5024533;28;20465;-70
2021/07/14 11:30:55;;;;;;;9.50;9.10;;;18.20;99.90;;;;;;5024606;28;20821;-69
2021/07/14 11:33:27;;;;;;;10.07;9.67;;;18.20;99.90;;;;;;5022887;28;20492;-72
2021/07/14 11:36:01;;;;;;;10.00;9.60;;;18.20;99.90;;;;;;5023655;28;20484;-69
2021/07/14 11:38:43;;;;;;;10.63;10.23;;;18.20;99.90;;;;;;5020427;28;21027;-70
2021/07/14 11:41:21;;;;;;;27.00;21.67;;;18.30;99.90;;;;;;5023533;28;20469;-71
2021/07/14 11:43:49;;;;;;;29.30;23.20;;;18.20;99.90;;;;;;5022050;28;20511;-70
2021/07/14 11:46:20;;;;;;;34.73;25.40;;;18.20;99.90;;;;;;5022488;28;20493;-70
2021/07/14 11:48:58;;;;;;;25.70;22.43;;;18.10;99.90;;;;;;5025218;28;20461;-70
2021/07/14 11:51:26;;;;;;;34.93;23.50;;;18.10;99.90;;;;;;5021718;28;20472;-71
2021/07/14 11:53:58;;;;;;;28.80;24.80;;;18.10;99.90;;;;;;5023071;28;20511;-72
2021/07/14 11:56:38;;;;;;;39.60;24.00;;;18.20;99.90;;;;;;5019583;28;20511;-71
2021/07/14 11:59:08;;;;;;;10.10;9.70;;;18.20;99.90;;;;;;5021965;28;20492;-73
2021/07/14 12:01:51;;;;;;;40.50;22.57;;;18.20;99.90;;;;;;5020963;28;20472;-73
2021/07/14 12:04:19;;;;;;;9.53;9.13;;;18.20;99.90;;;;;;5020232;28;20572;-72
2021/07/14 12:06:48;;;;;;;8.97;8.67;;;18.20;99.90;;;;;;5015623;28;20540;-71
2021/07/14 12:09:36;;;;;;;77.43;21.93;;;18.20;99.90;;;;;;5021213;28;20519;-76
2021/07/14 12:12:07;;;;;;;31.73;21.90;;;18.10;99.90;;;;;;5019604;28;20489;-73
2021/07/14 12:14:37;;;;;;;10.87;10.47;;;18.10;99.90;;;;;;5018753;28;20515;-73
2021/07/14 12:17:09;;;;;;;36.17;23.07;;;18.10;99.90;;;;;;5025129;28;20464;-72
2021/07/14 12:19:37;;;;;;;32.37;21.97;;;18.00;99.90;;;;;;5021809;28;20461;-74
2021/07/14 12:22:10;;;;;;;10.90;10.40;;;18.00;99.90;;;;;;5017715;28;20472;-73
2021/07/14 12:24:42;;;;;;;11.07;10.63;;;18.00;99.90;;;;;;5015892;28;20490;-72
2021/07/14 12:27:13;;;;;;;10.20;9.80;;;18.00;99.90;;;;;;5024977;28;20967;-71
2021/07/14 12:29:41;;;;;;;12.60;12.10;;;18.00;99.90;;;;;;5021760;28;20464;-73
2021/07/14 12:32:09;;;;;;;51.00;29.30;;;18.10;99.90;;;;;;5023336;28;20501;-75
2021/07/14 12:34:38;;;;;;;38.40;25.27;;;18.00;99.90;;;;;;5022819;28;20461;-72
2021/07/14 12:37:07;;;;;;;11.20;10.70;;;18.10;99.90;;;;;;5025665;28;20488;-72
2021/07/14 12:39:36;;;;;;;11.33;10.90;;;18.00;99.90;;;;;;5023255;28;20487;-71
2021/07/14 12:42:07;;;;;;;61.47;35.53;;;18.10;99.90;;;;;;5018810;28;20469;-71
2021/07/14 12:44:35;;;;;;;78.97;35.23;;;18.10;99.90;;;;;;5022952;28;20459;-72
2021/07/14 12:47:14;;;;;;;52.90;33.57;;;18.10;99.90;;;;;;5022900;28;20866;-71